Gary Chicago International Airport
KGYY : rendu visible

Aérodrome :











RETROUVEZ-NOUS SUR...

 
LOGIN :

S'inscrire | Disclaimer

   EN    FR    IT 

 









Légende :    VFR   VFR Marginal   IFR   IFR Intensif   IFR Très Intensif
Visi : 
Plafond : 
>= 8 km
>= 3000ft
5 à 8 km
1000 à 3000 ft
1500m à 5 km
500 à 1000 ft
800 à 1500m
200 à 500 ft
< 800m
< 200 ft
Symboles :   Orages  Brouillard  Fortes neiges  Fortes précipitations  Vent > 20 kt






- Altitude de l'aérodrome : 591 ft
- Code IATA : GYY


KGYY - Gary Chicago International

DERNIER METAR :
  • 121745Z 29011KT 10SM FEW020 M07/M17 A3050

METARs EXPIRÉS :
  • 121645Z 30008KT 10SM SCT020 M08/M16 A3050
  • 121545Z 28009KT 10SM SCT030 M09/M16 A3050

TAF KGYY
Valide du 12 à 18h jusqu'au 13 à 18h UTC


121730Z 1218/1318 30010KT P6SM SCT025
FM130000 23005KT P6SM SCT200
FM130900 19011KT P6SM BKN150



MET'MAP, la Météo Aéronautique d'un coup d'oeil ! - Copyright ORBIFLY Décembre 2007 - Disclaimer

ORBIFLY MET'MAP TEAM :

Programmation & Développement : Alexandra Zaïnal
Conception & Développement : Baudouin d'Aumeries
Co-Programmation & Développement : Marc-Olivier Méhu
Soutien technique & logistique : Manuel Goepfert

Contact : metmap@orbifly.com




SOURCES & CREDITS :

   NOAA       Earth
Advisory